sensor_id;sensor_type;location;lat;lon;timestamp;temperature;humidity
4425;DHT22;2225;53.568;13.266;2023-09-08T00:00:47;21.40;93.70
4425;DHT22;2225;53.568;13.266;2023-09-08T00:03:14;21.30;93.60
4425;DHT22;2225;53.568;13.266;2023-09-08T00:05:42;21.40;93.60
4425;DHT22;2225;53.568;13.266;2023-09-08T00:08:09;21.30;93.60
4425;DHT22;2225;53.568;13.266;2023-09-08T00:10:36;21.20;93.50
4425;DHT22;2225;53.568;13.266;2023-09-08T00:13:03;21.20;93.60
4425;DHT22;2225;53.568;13.266;2023-09-08T00:15:30;21.20;93.60
4425;DHT22;2225;53.568;13.266;2023-09-08T00:17:57;21.10;93.50
4425;DHT22;2225;53.568;13.266;2023-09-08T00:20:24;21.10;93.40
4425;DHT22;2225;53.568;13.266;2023-09-08T00:22:51;21.00;93.40
4425;DHT22;2225;53.568;13.266;2023-09-08T00:25:18;21.00;93.50
4425;DHT22;2225;53.568;13.266;2023-09-08T00:27:44;20.90;93.50
4425;DHT22;2225;53.568;13.266;2023-09-08T00:30:12;20.90;93.40
4425;DHT22;2225;53.568;13.266;2023-09-08T00:32:39;20.90;93.80
4425;DHT22;2225;53.568;13.266;2023-09-08T00:35:06;20.80;93.50
4425;DHT22;2225;53.568;13.266;2023-09-08T00:37:34;20.80;93.50
4425;DHT22;2225;53.568;13.266;2023-09-08T00:40:01;20.80;93.60
4425;DHT22;2225;53.568;13.266;2023-09-08T00:42:28;20.70;93.90
4425;DHT22;2225;53.568;13.266;2023-09-08T00:49:46;20.70;93.70
4425;DHT22;2225;53.568;13.266;2023-09-08T00:52:13;20.60;93.40
4425;DHT22;2225;53.568;13.266;2023-09-08T00:54:40;20.60;93.80
4425;DHT22;2225;53.568;13.266;2023-09-08T00:57:09;20.50;93.50
4425;DHT22;2225;53.568;13.266;2023-09-08T00:59:36;20.50;93.50
4425;DHT22;2225;53.568;13.266;2023-09-08T01:02:04;20.40;93.50
4425;DHT22;2225;53.568;13.266;2023-09-08T01:04:31;20.40;93.60
4425;DHT22;2225;53.568;13.266;2023-09-08T01:07:00;20.40;93.60
4425;DHT22;2225;53.568;13.266;2023-09-08T01:09:28;20.40;93.60
4425;DHT22;2225;53.568;13.266;2023-09-08T01:11:55;20.30;93.60
4425;DHT22;2225;53.568;13.266;2023-09-08T01:14:29;20.30;93.90
4425;DHT22;2225;53.568;13.266;2023-09-08T01:16:56;20.30;93.60
4425;DHT22;2225;53.568;13.266;2023-09-08T01:19:23;20.30;93.60
4425;DHT22;2225;53.568;13.266;2023-09-08T01:22:03;20.30;93.60
4425;DHT22;2225;53.568;13.266;2023-09-08T01:27:47;20.20;93.60
4425;DHT22;2225;53.568;13.266;2023-09-08T01:30:16;20.20;93.50
4425;DHT22;2225;53.568;13.266;2023-09-08T01:32:45;20.20;93.50
4425;DHT22;2225;53.568;13.266;2023-09-08T01:35:12;20.10;93.50
4425;DHT22;2225;53.568;13.266;2023-09-08T01:37:47;20.10;93.70
4425;DHT22;2225;53.568;13.266;2023-09-08T01:40:15;20.10;93.80
4425;DHT22;2225;53.568;13.266;2023-09-08T01:42:42;20.00;93.70
4425;DHT22;2225;53.568;13.266;2023-09-08T01:45:09;20.00;93.70
4425;DHT22;2225;53.568;13.266;2023-09-08T01:47:37;20.00;93.70
4425;DHT22;2225;53.568;13.266;2023-09-08T01:50:04;20.00;94.00
4425;DHT22;2225;53.568;13.266;2023-09-08T01:52:31;19.90;94.00
4425;DHT22;2225;53.568;13.266;2023-09-08T01:55:00;19.90;94.20
4425;DHT22;2225;53.568;13.266;2023-09-08T01:57:28;19.90;94.20
4425;DHT22;2225;53.568;13.266;2023-09-08T01:59:55;19.80;94.20
4425;DHT22;2225;53.568;13.266;2023-09-08T02:02:22;19.80;94.20
4425;DHT22;2225;53.568;13.266;2023-09-08T02:04:48;19.80;94.20
4425;DHT22;2225;53.568;13.266;2023-09-08T02:07:15;19.80;94.30
4425;DHT22;2225;53.568;13.266;2023-09-08T02:09:42;19.70;94.30
4425;DHT22;2225;53.568;13.266;2023-09-08T02:12:09;19.70;94.30
4425;DHT22;2225;53.568;13.266;2023-09-08T02:14:36;19.70;94.30
4425;DHT22;2225;53.568;13.266;2023-09-08T02:17:04;19.70;94.30
4425;DHT22;2225;53.568;13.266;2023-09-08T02:19:32;19.70;94.40
4425;DHT22;2225;53.568;13.266;2023-09-08T02:21:59;19.60;94.30
4425;DHT22;2225;53.568;13.266;2023-09-08T02:24:27;19.70;94.30
4425;DHT22;2225;53.568;13.266;2023-09-08T02:26:54;19.70;94.30
4425;DHT22;2225;53.568;13.266;2023-09-08T02:29:21;19.60;94.30
4425;DHT22;2225;53.568;13.266;2023-09-08T02:31:49;19.60;94.30
4425;DHT22;2225;53.568;13.266;2023-09-08T02:34:16;19.60;94.30
4425;DHT22;2225;53.568;13.266;2023-09-08T02:36:44;19.50;94.40
4425;DHT22;2225;53.568;13.266;2023-09-08T02:39:15;19.60;94.40
4425;DHT22;2225;53.568;13.266;2023-09-08T02:41:42;19.60;94.50
4425;DHT22;2225;53.568;13.266;2023-09-08T02:44:09;19.60;94.50
4425;DHT22;2225;53.568;13.266;2023-09-08T02:46:36;19.50;94.60
4425;DHT22;2225;53.568;13.266;2023-09-08T02:49:03;19.50;94.70
4425;DHT22;2225;53.568;13.266;2023-09-08T02:51:30;19.50;94.70
4425;DHT22;2225;53.568;13.266;2023-09-08T02:53:57;19.50;94.60
4425;DHT22;2225;53.568;13.266;2023-09-08T02:56:24;19.50;94.60
4425;DHT22;2225;53.568;13.266;2023-09-08T02:58:51;19.40;94.70
4425;DHT22;2225;53.568;13.266;2023-09-08T03:01:18;19.50;94.90
4425;DHT22;2225;53.568;13.266;2023-09-08T03:03:47;19.40;94.40
4425;DHT22;2225;53.568;13.266;2023-09-08T03:06:18;19.40;94.30
4425;DHT22;2225;53.568;13.266;2023-09-08T03:08:47;19.40;94.20
4425;DHT22;2225;53.568;13.266;2023-09-08T03:11:14;19.30;94.00
4425;DHT22;2225;53.568;13.266;2023-09-08T03:13:41;19.30;93.90
4425;DHT22;2225;53.568;13.266;2023-09-08T03:16:09;19.20;93.80
4425;DHT22;2225;53.568;13.266;2023-09-08T03:18:37;19.20;93.80
4425;DHT22;2225;53.568;13.266;2023-09-08T03:21:06;19.20;93.80
4425;DHT22;2225;53.568;13.266;2023-09-08T03:23:38;19.10;93.80
4425;DHT22;2225;53.568;13.266;2023-09-08T03:26:06;19.10;93.80
4425;DHT22;2225;53.568;13.266;2023-09-08T03:28:35;19.10;93.80
4425;DHT22;2225;53.568;13.266;2023-09-08T03:31:03;19.00;93.80
4425;DHT22;2225;53.568;13.266;2023-09-08T03:33:33;19.00;93.80
4425;DHT22;2225;53.568;13.266;2023-09-08T03:36:01;18.90;93.80
4425;DHT22;2225;53.568;13.266;2023-09-08T03:38:29;18.90;93.90
4425;DHT22;2225;53.568;13.266;2023-09-08T03:40:56;18.90;93.90
4425;DHT22;2225;53.568;13.266;2023-09-08T03:43:24;18.80;94.00
4425;DHT22;2225;53.568;13.266;2023-09-08T03:45:51;18.80;94.00
4425;DHT22;2225;53.568;13.266;2023-09-08T03:48:18;18.80;94.10
4425;DHT22;2225;53.568;13.266;2023-09-08T03:50:46;18.70;94.10
4425;DHT22;2225;53.568;13.266;2023-09-08T03:53:14;18.70;94.10
4425;DHT22;2225;53.568;13.266;2023-09-08T03:55:41;18.80;94.10
4425;DHT22;2225;53.568;13.266;2023-09-08T03:58:08;18.70;94.10
4425;DHT22;2225;53.568;13.266;2023-09-08T04:00:35;18.70;94.00
4425;DHT22;2225;53.568;13.266;2023-09-08T04:03:03;18.70;94.10
4425;DHT22;2225;53.568;13.266;2023-09-08T04:05:30;18.70;94.10
4425;DHT22;2225;53.568;13.266;2023-09-08T04:07:57;18.70;94.10
4425;DHT22;2225;53.568;13.266;2023-09-08T04:10:25;18.70;94.00
4425;DHT22;2225;53.568;13.266;2023-09-08T04:12:52;18.70;94.10
4425;DHT22;2225;53.568;13.266;2023-09-08T04:15:19;18.60;94.10
4425;DHT22;2225;53.568;13.266;2023-09-08T04:17:46;18.60;94.10
4425;DHT22;2225;53.568;13.266;2023-09-08T04:20:13;18.60;94.20
4425;DHT22;2225;53.568;13.266;2023-09-08T04:22:41;18.70;94.30
4425;DHT22;2225;53.568;13.266;2023-09-08T04:25:09;18.60;94.30
4425;DHT22;2225;53.568;13.266;2023-09-08T04:27:37;18.60;94.40
4425;DHT22;2225;53.568;13.266;2023-09-08T04:30:05;18.60;94.40
4425;DHT22;2225;53.568;13.266;2023-09-08T04:32:33;18.60;94.50
4425;DHT22;2225;53.568;13.266;2023-09-08T04:35:00;18.50;94.60
4425;DHT22;2225;53.568;13.266;2023-09-08T04:37:27;18.60;94.70
4425;DHT22;2225;53.568;13.266;2023-09-08T04:39:54;18.60;94.70
4425;DHT22;2225;53.568;13.266;2023-09-08T04:42:21;18.60;94.80
4425;DHT22;2225;53.568;13.266;2023-09-08T04:44:50;18.60;94.90
4425;DHT22;2225;53.568;13.266;2023-09-08T04:47:17;18.60;95.00
4425;DHT22;2225;53.568;13.266;2023-09-08T04:49:45;18.50;95.00
4425;DHT22;2225;53.568;13.266;2023-09-08T04:52:12;18.60;95.10
4425;DHT22;2225;53.568;13.266;2023-09-08T04:54:40;18.60;95.30
4425;DHT22;2225;53.568;13.266;2023-09-08T04:57:07;18.60;95.40
4425;DHT22;2225;53.568;13.266;2023-09-08T04:59:49;18.60;95.40
4425;DHT22;2225;53.568;13.266;2023-09-08T05:02:16;18.70;95.50
4425;DHT22;2225;53.568;13.266;2023-09-08T05:04:45;18.70;95.50
4425;DHT22;2225;53.568;13.266;2023-09-08T05:07:12;18.70;95.50
4425;DHT22;2225;53.568;13.266;2023-09-08T05:09:40;18.70;95.50
4425;DHT22;2225;53.568;13.266;2023-09-08T05:12:07;18.80;95.30
4425;DHT22;2225;53.568;13.266;2023-09-08T05:14:35;18.80;95.10
4425;DHT22;2225;53.568;13.266;2023-09-08T05:17:03;18.80;95.00
4425;DHT22;2225;53.568;13.266;2023-09-08T05:19:31;18.80;94.80
4425;DHT22;2225;53.568;13.266;2023-09-08T05:21:58;18.90;94.70
4425;DHT22;2225;53.568;13.266;2023-09-08T05:24:25;18.90;94.60
4425;DHT22;2225;53.568;13.266;2023-09-08T05:26:53;18.90;94.60
4425;DHT22;2225;53.568;13.266;2023-09-08T05:29:21;19.00;94.60
4425;DHT22;2225;53.568;13.266;2023-09-08T05:31:49;19.00;94.80
4425;DHT22;2225;53.568;13.266;2023-09-08T05:34:16;19.00;94.90
4425;DHT22;2225;53.568;13.266;2023-09-08T05:36:44;19.10;95.00
4425;DHT22;2225;53.568;13.266;2023-09-08T05:39:13;19.10;95.10
4425;DHT22;2225;53.568;13.266;2023-09-08T05:41:41;19.10;95.10
4425;DHT22;2225;53.568;13.266;2023-09-08T05:44:08;19.20;95.10
4425;DHT22;2225;53.568;13.266;2023-09-08T05:46:35;19.30;95.20
4425;DHT22;2225;53.568;13.266;2023-09-08T05:49:02;19.30;95.50
4425;DHT22;2225;53.568;13.266;2023-09-08T05:51:31;19.40;95.20
4425;DHT22;2225;53.568;13.266;2023-09-08T05:53:58;19.40;95.10
4425;DHT22;2225;53.568;13.266;2023-09-08T05:56:29;19.50;95.00
4425;DHT22;2225;53.568;13.266;2023-09-08T05:58:58;19.60;94.90
4425;DHT22;2225;53.568;13.266;2023-09-08T06:01:25;19.60;94.60
4425;DHT22;2225;53.568;13.266;2023-09-08T06:03:52;19.60;94.50
4425;DHT22;2225;53.568;13.266;2023-09-08T06:06:22;19.70;94.60
4425;DHT22;2225;53.568;13.266;2023-09-08T06:08:49;19.80;94.60
4425;DHT22;2225;53.568;13.266;2023-09-08T06:11:16;19.80;94.50
4425;DHT22;2225;53.568;13.266;2023-09-08T06:13:45;19.80;94.60
4425;DHT22;2225;53.568;13.266;2023-09-08T06:16:12;19.90;94.70
4425;DHT22;2225;53.568;13.266;2023-09-08T06:18:39;20.00;94.90
4425;DHT22;2225;53.568;13.266;2023-09-08T06:21:14;20.00;95.10
4425;DHT22;2225;53.568;13.266;2023-09-08T06:23:41;20.10;95.30
4425;DHT22;2225;53.568;13.266;2023-09-08T06:26:08;20.20;95.50
4425;DHT22;2225;53.568;13.266;2023-09-08T06:28:36;20.20;95.70
4425;DHT22;2225;53.568;13.266;2023-09-08T06:31:04;20.30;95.90
4425;DHT22;2225;53.568;13.266;2023-09-08T06:33:32;20.50;96.00
4425;DHT22;2225;53.568;13.266;2023-09-08T06:35:59;20.50;96.00
4425;DHT22;2225;53.568;13.266;2023-09-08T06:38:26;20.60;96.00
4425;DHT22;2225;53.568;13.266;2023-09-08T06:40:53;20.70;96.10
4425;DHT22;2225;53.568;13.266;2023-09-08T06:43:20;20.90;96.10
4425;DHT22;2225;53.568;13.266;2023-09-08T06:45:54;21.00;96.10
4425;DHT22;2225;53.568;13.266;2023-09-08T06:48:22;21.10;96.00
4425;DHT22;2225;53.568;13.266;2023-09-08T06:50:53;21.20;96.10
4425;DHT22;2225;53.568;13.266;2023-09-08T06:53:22;21.30;96.00
4425;DHT22;2225;53.568;13.266;2023-09-08T06:55:50;21.40;96.00
4425;DHT22;2225;53.568;13.266;2023-09-08T06:58:16;21.50;95.90
4425;DHT22;2225;53.568;13.266;2023-09-08T07:00:43;21.60;95.90
4425;DHT22;2225;53.568;13.266;2023-09-08T07:03:11;21.80;95.70
4425;DHT22;2225;53.568;13.266;2023-09-08T07:05:39;21.90;95.70
4425;DHT22;2225;53.568;13.266;2023-09-08T07:08:07;22.00;95.60
4425;DHT22;2225;53.568;13.266;2023-09-08T07:10:34;22.10;95.50
4425;DHT22;2225;53.568;13.266;2023-09-08T07:13:01;22.20;95.40
4425;DHT22;2225;53.568;13.266;2023-09-08T07:15:28;22.30;95.30
4425;DHT22;2225;53.568;13.266;2023-09-08T07:17:56;22.40;95.20
4425;DHT22;2225;53.568;13.266;2023-09-08T07:20:24;22.50;95.00
4425;DHT22;2225;53.568;13.266;2023-09-08T07:22:51;22.60;95.10
4425;DHT22;2225;53.568;13.266;2023-09-08T07:25:18;22.80;95.00
4425;DHT22;2225;53.568;13.266;2023-09-08T07:27:46;22.90;94.80
4425;DHT22;2225;53.568;13.266;2023-09-08T07:30:14;23.00;94.70
4425;DHT22;2225;53.568;13.266;2023-09-08T07:32:42;23.20;94.50
4425;DHT22;2225;53.568;13.266;2023-09-08T07:35:09;23.30;94.40
4425;DHT22;2225;53.568;13.266;2023-09-08T07:37:42;23.40;94.00
4425;DHT22;2225;53.568;13.266;2023-09-08T07:40:10;23.60;93.70
4425;DHT22;2225;53.568;13.266;2023-09-08T07:42:38;23.70;93.50
4425;DHT22;2225;53.568;13.266;2023-09-08T07:45:05;23.80;93.40
4425;DHT22;2225;53.568;13.266;2023-09-08T07:47:33;23.90;92.90
4425;DHT22;2225;53.568;13.266;2023-09-08T07:50:22;24.10;92.70
4425;DHT22;2225;53.568;13.266;2023-09-08T07:52:52;24.20;92.10
4425;DHT22;2225;53.568;13.266;2023-09-08T07:55:19;24.40;91.50
4425;DHT22;2225;53.568;13.266;2023-09-08T07:57:50;24.50;90.90
4425;DHT22;2225;53.568;13.266;2023-09-08T08:00:18;24.60;90.00
4425;DHT22;2225;53.568;13.266;2023-09-08T08:02:47;24.70;90.20
4425;DHT22;2225;53.568;13.266;2023-09-08T08:05:17;24.80;88.50
4425;DHT22;2225;53.568;13.266;2023-09-08T08:07:44;25.00;87.90
4425;DHT22;2225;53.568;13.266;2023-09-08T08:10:12;25.10;87.00
4425;DHT22;2225;53.568;13.266;2023-09-08T08:12:40;25.20;84.70
4425;DHT22;2225;53.568;13.266;2023-09-08T08:15:08;25.30;85.20
4425;DHT22;2225;53.568;13.266;2023-09-08T08:17:39;25.40;85.60
4425;DHT22;2225;53.568;13.266;2023-09-08T08:20:08;25.60;84.60
4425;DHT22;2225;53.568;13.266;2023-09-08T08:22:37;25.70;84.60
4425;DHT22;2225;53.568;13.266;2023-09-08T08:25:05;25.80;83.70
4425;DHT22;2225;53.568;13.266;2023-09-08T08:27:32;25.90;83.50
4425;DHT22;2225;53.568;13.266;2023-09-08T08:29:59;26.10;81.10
4425;DHT22;2225;53.568;13.266;2023-09-08T08:32:28;26.20;80.70
4425;DHT22;2225;53.568;13.266;2023-09-08T08:34:55;26.30;80.10
4425;DHT22;2225;53.568;13.266;2023-09-08T08:37:23;26.40;79.00
4425;DHT22;2225;53.568;13.266;2023-09-08T08:39:50;26.40;78.30
4425;DHT22;2225;53.568;13.266;2023-09-08T08:42:17;26.60;79.50
4425;DHT22;2225;53.568;13.266;2023-09-08T08:44:49;26.70;78.60
4425;DHT22;2225;53.568;13.266;2023-09-08T08:47:17;26.80;79.10
4425;DHT22;2225;53.568;13.266;2023-09-08T08:49:46;26.90;78.30
4425;DHT22;2225;53.568;13.266;2023-09-08T08:52:14;27.00;77.80
4425;DHT22;2225;53.568;13.266;2023-09-08T08:54:41;27.10;77.80
4425;DHT22;2225;53.568;13.266;2023-09-08T08:57:10;27.30;77.00
4425;DHT22;2225;53.568;13.266;2023-09-08T08:59:38;27.40;75.40
4425;DHT22;2225;53.568;13.266;2023-09-08T09:02:05;27.50;75.50
4425;DHT22;2225;53.568;13.266;2023-09-08T09:04:32;27.60;74.20
4425;DHT22;2225;53.568;13.266;2023-09-08T09:07:00;27.60;73.40
4425;DHT22;2225;53.568;13.266;2023-09-08T09:09:28;27.70;72.70
4425;DHT22;2225;53.568;13.266;2023-09-08T09:11:55;27.80;73.10
4425;DHT22;2225;53.568;13.266;2023-09-08T09:14:22;27.90;72.80
4425;DHT22;2225;53.568;13.266;2023-09-08T09:16:50;28.00;72.60
4425;DHT22;2225;53.568;13.266;2023-09-08T09:19:21;28.10;71.70
4425;DHT22;2225;53.568;13.266;2023-09-08T09:21:55;28.20;70.90
4425;DHT22;2225;53.568;13.266;2023-09-08T09:24:30;28.30;71.90
4425;DHT22;2225;53.568;13.266;2023-09-08T09:27:00;28.30;69.90
4425;DHT22;2225;53.568;13.266;2023-09-08T09:29:28;28.40;70.50
4425;DHT22;2225;53.568;13.266;2023-09-08T09:32:02;28.60;70.20
4425;DHT22;2225;53.568;13.266;2023-09-08T09:34:30;28.60;69.80
4425;DHT22;2225;53.568;13.266;2023-09-08T09:36:58;28.70;68.80
4425;DHT22;2225;53.568;13.266;2023-09-08T09:39:26;28.70;68.10
4425;DHT22;2225;53.568;13.266;2023-09-08T09:41:57;28.80;67.70
4425;DHT22;2225;53.568;13.266;2023-09-08T09:44:24;28.90;67.60
4425;DHT22;2225;53.568;13.266;2023-09-08T09:46:52;29.00;68.10
4425;DHT22;2225;53.568;13.266;2023-09-08T09:49:20;29.00;67.20
4425;DHT22;2225;53.568;13.266;2023-09-08T09:51:49;29.10;66.90
4425;DHT22;2225;53.568;13.266;2023-09-08T09:54:19;29.10;66.60
4425;DHT22;2225;53.568;13.266;2023-09-08T09:56:46;29.20;67.10
4425;DHT22;2225;53.568;13.266;2023-09-08T09:59:17;29.30;66.80
4425;DHT22;2225;53.568;13.266;2023-09-08T10:01:44;29.30;66.00
4425;DHT22;2225;53.568;13.266;2023-09-08T10:04:12;29.40;65.80
4425;DHT22;2225;53.568;13.266;2023-09-08T10:06:42;29.40;65.00
4425;DHT22;2225;53.568;13.266;2023-09-08T10:09:10;29.50;65.20
4425;DHT22;2225;53.568;13.266;2023-09-08T10:11:46;29.50;65.40
4425;DHT22;2225;53.568;13.266;2023-09-08T10:14:16;29.60;64.80
4425;DHT22;2225;53.568;13.266;2023-09-08T10:16:46;29.70;64.50
4425;DHT22;2225;53.568;13.266;2023-09-08T10:19:17;29.80;64.00
4425;DHT22;2225;53.568;13.266;2023-09-08T10:21:47;29.80;63.60
4425;DHT22;2225;53.568;13.266;2023-09-08T10:24:22;29.90;64.00
4425;DHT22;2225;53.568;13.266;2023-09-08T10:27:04;30.00;64.20
4425;DHT22;2225;53.568;13.266;2023-09-08T10:29:36;30.10;62.80
4425;DHT22;2225;53.568;13.266;2023-09-08T10:32:06;30.20;61.50
4425;DHT22;2225;53.568;13.266;2023-09-08T10:34:36;30.20;61.90
4425;DHT22;2225;53.568;13.266;2023-09-08T10:37:18;30.20;60.80
4425;DHT22;2225;53.568;13.266;2023-09-08T10:39:48;30.30;60.50
4425;DHT22;2225;53.568;13.266;2023-09-08T10:47:26;30.40;59.90
4425;DHT22;2225;53.568;13.266;2023-09-08T10:50:18;30.50;60.00
4425;DHT22;2225;53.568;13.266;2023-09-08T10:55:36;30.70;59.60
4425;DHT22;2225;53.568;13.266;2023-09-08T10:58:09;30.70;59.50
4425;DHT22;2225;53.568;13.266;2023-09-08T11:00:44;30.80;59.20
4425;DHT22;2225;53.568;13.266;2023-09-08T11:03:13;30.80;59.40
4425;DHT22;2225;53.568;13.266;2023-09-08T11:05:41;30.90;59.40
4425;DHT22;2225;53.568;13.266;2023-09-08T11:08:09;31.00;58.70
4425;DHT22;2225;53.568;13.266;2023-09-08T11:10:37;31.00;58.70
4425;DHT22;2225;53.568;13.266;2023-09-08T11:13:07;31.10;58.50
4425;DHT22;2225;53.568;13.266;2023-09-08T11:15:34;31.10;58.20
4425;DHT22;2225;53.568;13.266;2023-09-08T11:18:05;31.20;58.10
4425;DHT22;2225;53.568;13.266;2023-09-08T11:20:33;31.30;58.40
4425;DHT22;2225;53.568;13.266;2023-09-08T11:23:01;31.30;57.00
4425;DHT22;2225;53.568;13.266;2023-09-08T11:25:28;31.30;57.40
4425;DHT22;2225;53.568;13.266;2023-09-08T11:27:55;31.30;57.10
4425;DHT22;2225;53.568;13.266;2023-09-08T11:30:25;31.40;57.00
4425;DHT22;2225;53.568;13.266;2023-09-08T11:32:52;31.40;57.30
4425;DHT22;2225;53.568;13.266;2023-09-08T11:35:19;31.40;56.50
4425;DHT22;2225;53.568;13.266;2023-09-08T11:37:47;31.50;56.00
4425;DHT22;2225;53.568;13.266;2023-09-08T11:40:16;31.50;55.90
4425;DHT22;2225;53.568;13.266;2023-09-08T11:42:44;31.60;56.60
4425;DHT22;2225;53.568;13.266;2023-09-08T11:45:15;31.60;56.30
4425;DHT22;2225;53.568;13.266;2023-09-08T11:47:48;31.70;55.90
4425;DHT22;2225;53.568;13.266;2023-09-08T11:50:18;31.80;55.90
4425;DHT22;2225;53.568;13.266;2023-09-08T11:52:50;31.80;55.00
4425;DHT22;2225;53.568;13.266;2023-09-08T11:55:19;31.90;54.60
4425;DHT22;2225;53.568;13.266;2023-09-08T11:57:52;31.90;54.20
4425;DHT22;2225;53.568;13.266;2023-09-08T12:00:22;31.90;53.40
4425;DHT22;2225;53.568;13.266;2023-09-08T12:02:50;31.90;53.90
4425;DHT22;2225;53.568;13.266;2023-09-08T12:05:24;31.90;53.80
4425;DHT22;2225;53.568;13.266;2023-09-08T12:07:54;32.00;54.00
4425;DHT22;2225;53.568;13.266;2023-09-08T12:10:24;32.00;53.80
4425;DHT22;2225;53.568;13.266;2023-09-08T12:12:53;32.00;54.10
4425;DHT22;2225;53.568;13.266;2023-09-08T12:15:36;32.10;53.80
4425;DHT22;2225;53.568;13.266;2023-09-08T12:18:09;32.10;52.90
4425;DHT22;2225;53.568;13.266;2023-09-08T12:20:38;32.20;53.70
4425;DHT22;2225;53.568;13.266;2023-09-08T12:23:16;32.10;52.70
4425;DHT22;2225;53.568;13.266;2023-09-08T12:25:49;32.20;52.30
4425;DHT22;2225;53.568;13.266;2023-09-08T12:28:21;32.30;53.60
4425;DHT22;2225;53.568;13.266;2023-09-08T12:30:49;32.30;52.90
4425;DHT22;2225;53.568;13.266;2023-09-08T12:33:17;32.30;51.70
4425;DHT22;2225;53.568;13.266;2023-09-08T12:35:47;32.30;51.30
4425;DHT22;2225;53.568;13.266;2023-09-08T12:38:15;32.40;51.60
4425;DHT22;2225;53.568;13.266;2023-09-08T12:40:42;32.40;51.60
4425;DHT22;2225;53.568;13.266;2023-09-08T12:43:09;32.50;51.20
4425;DHT22;2225;53.568;13.266;2023-09-08T12:45:54;32.50;50.30
4425;DHT22;2225;53.568;13.266;2023-09-08T12:48:23;32.50;50.40
4425;DHT22;2225;53.568;13.266;2023-09-08T12:50:50;32.50;51.00
4425;DHT22;2225;53.568;13.266;2023-09-08T12:53:17;32.50;50.30
4425;DHT22;2225;53.568;13.266;2023-09-08T12:55:45;32.50;50.50
4425;DHT22;2225;53.568;13.266;2023-09-08T12:58:12;32.60;50.00
4425;DHT22;2225;53.568;13.266;2023-09-08T13:00:39;32.60;50.10
4425;DHT22;2225;53.568;13.266;2023-09-08T13:03:06;32.60;49.30
4425;DHT22;2225;53.568;13.266;2023-09-08T13:05:33;32.60;49.20
4425;DHT22;2225;53.568;13.266;2023-09-08T13:08:01;32.60;49.30
4425;DHT22;2225;53.568;13.266;2023-09-08T13:10:28;32.70;49.00
4425;DHT22;2225;53.568;13.266;2023-09-08T13:12:55;32.70;49.30
4425;DHT22;2225;53.568;13.266;2023-09-08T13:15:23;32.80;49.40
4425;DHT22;2225;53.568;13.266;2023-09-08T13:17:50;32.70;47.90
4425;DHT22;2225;53.568;13.266;2023-09-08T13:20:18;32.70;47.80
4425;DHT22;2225;53.568;13.266;2023-09-08T13:22:45;32.70;47.90
4425;DHT22;2225;53.568;13.266;2023-09-08T13:25:12;32.70;47.80
4425;DHT22;2225;53.568;13.266;2023-09-08T13:27:42;32.70;47.00
4425;DHT22;2225;53.568;13.266;2023-09-08T13:30:11;32.80;47.50
4425;DHT22;2225;53.568;13.266;2023-09-08T13:32:39;32.70;48.20
4425;DHT22;2225;53.568;13.266;2023-09-08T13:35:07;32.80;48.40
4425;DHT22;2225;53.568;13.266;2023-09-08T13:37:34;32.80;48.30
4425;DHT22;2225;53.568;13.266;2023-09-08T13:40:04;32.90;48.20
4425;DHT22;2225;53.568;13.266;2023-09-08T13:42:32;32.90;47.80
4425;DHT22;2225;53.568;13.266;2023-09-08T13:44:59;32.90;47.20
4425;DHT22;2225;53.568;13.266;2023-09-08T13:47:27;32.90;47.20
4425;DHT22;2225;53.568;13.266;2023-09-08T13:49:55;33.00;47.30
4425;DHT22;2225;53.568;13.266;2023-09-08T13:52:24;33.00;47.60
4425;DHT22;2225;53.568;13.266;2023-09-08T13:54:57;33.00;47.80
4425;DHT22;2225;53.568;13.266;2023-09-08T13:57:28;33.00;46.40
4425;DHT22;2225;53.568;13.266;2023-09-08T13:59:56;33.00;46.20
4425;DHT22;2225;53.568;13.266;2023-09-08T14:02:24;33.00;45.20
4425;DHT22;2225;53.568;13.266;2023-09-08T14:04:54;32.90;46.00
4425;DHT22;2225;53.568;13.266;2023-09-08T14:07:27;32.90;45.60
4425;DHT22;2225;53.568;13.266;2023-09-08T14:09:57;32.90;45.60
4425;DHT22;2225;53.568;13.266;2023-09-08T14:12:27;32.90;46.30
4425;DHT22;2225;53.568;13.266;2023-09-08T14:15:01;32.90;46.80
4425;DHT22;2225;53.568;13.266;2023-09-08T14:17:29;33.00;46.70
4425;DHT22;2225;53.568;13.266;2023-09-08T14:19:56;32.90;45.90
4425;DHT22;2225;53.568;13.266;2023-09-08T14:22:23;32.90;45.60
4425;DHT22;2225;53.568;13.266;2023-09-08T14:24:51;32.90;45.70
4425;DHT22;2225;53.568;13.266;2023-09-08T14:27:18;32.90;45.70
4425;DHT22;2225;53.568;13.266;2023-09-08T14:29:45;32.90;45.90
4425;DHT22;2225;53.568;13.266;2023-09-08T14:32:12;32.90;46.40
4425;DHT22;2225;53.568;13.266;2023-09-08T14:34:39;32.90;46.50
4425;DHT22;2225;53.568;13.266;2023-09-08T14:37:06;32.90;46.60
4425;DHT22;2225;53.568;13.266;2023-09-08T14:39:36;33.00;47.00
4425;DHT22;2225;53.568;13.266;2023-09-08T14:42:03;33.00;45.90
4425;DHT22;2225;53.568;13.266;2023-09-08T14:44:32;33.00;45.50
4425;DHT22;2225;53.568;13.266;2023-09-08T14:46:59;32.90;45.60
4425;DHT22;2225;53.568;13.266;2023-09-08T14:49:26;32.90;45.90
4425;DHT22;2225;53.568;13.266;2023-09-08T14:51:52;32.90;46.30
4425;DHT22;2225;53.568;13.266;2023-09-08T14:54:19;32.90;46.40
4425;DHT22;2225;53.568;13.266;2023-09-08T14:56:46;33.00;46.30
4425;DHT22;2225;53.568;13.266;2023-09-08T14:59:13;32.90;46.00
4425;DHT22;2225;53.568;13.266;2023-09-08T15:01:40;32.90;45.80
4425;DHT22;2225;53.568;13.266;2023-09-08T15:04:10;32.90;46.60
4425;DHT22;2225;53.568;13.266;2023-09-08T15:06:37;32.90;46.50
4425;DHT22;2225;53.568;13.266;2023-09-08T15:09:04;32.90;47.00
4425;DHT22;2225;53.568;13.266;2023-09-08T15:11:31;32.90;47.20
4425;DHT22;2225;53.568;13.266;2023-09-08T15:13:58;32.90;46.30
4425;DHT22;2225;53.568;13.266;2023-09-08T15:16:25;32.90;46.20
4425;DHT22;2225;53.568;13.266;2023-09-08T15:18:52;32.90;46.60
4425;DHT22;2225;53.568;13.266;2023-09-08T15:21:24;33.00;47.00
4425;DHT22;2225;53.568;13.266;2023-09-08T15:23:54;33.00;47.20
4425;DHT22;2225;53.568;13.266;2023-09-08T15:26:21;33.00;47.00
4425;DHT22;2225;53.568;13.266;2023-09-08T15:28:48;33.00;47.20
4425;DHT22;2225;53.568;13.266;2023-09-08T15:31:16;32.90;46.80
4425;DHT22;2225;53.568;13.266;2023-09-08T15:33:43;32.90;46.90
4425;DHT22;2225;53.568;13.266;2023-09-08T15:36:11;32.90;47.00
4425;DHT22;2225;53.568;13.266;2023-09-08T15:38:39;32.80;47.00
4425;DHT22;2225;53.568;13.266;2023-09-08T15:43:36;32.80;47.30
4425;DHT22;2225;53.568;13.266;2023-09-08T15:46:05;32.80;47.40
4425;DHT22;2225;53.568;13.266;2023-09-08T15:48:38;32.80;47.50
4425;DHT22;2225;53.568;13.266;2023-09-08T15:51:08;32.80;47.80
4425;DHT22;2225;53.568;13.266;2023-09-08T15:53:37;32.80;47.70
4425;DHT22;2225;53.568;13.266;2023-09-08T15:56:05;32.70;47.50
4425;DHT22;2225;53.568;13.266;2023-09-08T15:58:34;32.70;47.50
4425;DHT22;2225;53.568;13.266;2023-09-08T16:01:01;32.70;47.60
4425;DHT22;2225;53.568;13.266;2023-09-08T16:03:28;32.60;47.60
4425;DHT22;2225;53.568;13.266;2023-09-08T16:05:55;32.60;47.80
4425;DHT22;2225;53.568;13.266;2023-09-08T16:08:22;32.60;47.90
4425;DHT22;2225;53.568;13.266;2023-09-08T16:10:51;32.60;48.20